Terminal Aerodrome Forecast
Issued by NWS Sterling, VA

Home | Current Version | Previous Version | Text Only | Print | Product List | Glossary On
Versions: 1 2 3 4 5 6 7 8 9 10 11 12
000
FTUS41 KLWX 280500
TAFCHO
TAF
KCHO 280540Z 2806/2906 20004KT P6SM VCSH BKN070
     FM281400 23005KT 5SM -SHRA OVC025
     FM281700 27004KT 3SM -RA OVC015
     FM290300 01004KT 5SM -RA OVC025=

USA.gov is the U.S. government's official web portal to all federal, state and local government web resources and services.